createdAt,value
2023-03-24T00:00:29.733Z,25.9
2023-03-24T00:02:29.774Z,25.8
2023-03-24T00:04:29.816Z,25.7
2023-03-24T00:06:29.672Z,25.8
2023-03-24T00:08:29.735Z,25.7
2023-03-24T00:10:29.683Z,25.8
2023-03-24T00:11:49.202Z,25.8
2023-03-24T00:13:02.767Z,25.7
2023-03-24T00:14:29.735Z,25.7
2023-03-24T00:16:29.772Z,25.6
2023-03-24T00:18:29.691Z,25.6
2023-03-24T00:20:29.728Z,25.5
2023-03-24T00:22:29.755Z,25.5
2023-03-24T00:24:29.801Z,25.4
2023-03-24T00:26:29.675Z,25.5
2023-03-24T00:28:29.766Z,25.4
2023-03-24T00:29:22.726Z,25.4
2023-03-24T00:30:29.707Z,25.5
2023-03-24T00:32:29.686Z,25.3
2023-03-24T00:34:29.750Z,25.3
2023-03-24T00:36:29.722Z,25.3
2023-03-24T00:38:29.718Z,25.4
2023-03-24T00:40:29.774Z,25.3
2023-03-24T00:42:29.673Z,25.3
2023-03-24T00:44:29.677Z,25.4
2023-03-24T00:46:29.935Z,25.4
2023-03-24T00:48:29.729Z,25.3
2023-03-24T00:50:29.637Z,25.2
2023-03-24T00:52:29.723Z,25.2
2023-03-24T00:53:22.143Z,25.2
2023-03-24T00:54:29.657Z,25.1
2023-03-24T00:56:29.674Z,25.2
2023-03-24T00:58:29.689Z,25.1
2023-03-24T01:00:29.894Z,25.1
2023-03-24T01:02:29.861Z,25
2023-03-24T01:04:29.655Z,25
2023-03-24T01:06:29.608Z,25.1
2023-03-24T01:08:29.656Z,25.1
2023-03-24T01:10:29.685Z,25
2023-03-24T01:12:29.647Z,25
2023-03-24T01:14:29.637Z,25
2023-03-24T01:16:51.625Z,25.1
2023-03-24T01:18:29.628Z,25
2023-03-24T01:20:29.613Z,24.9
2023-03-24T01:22:29.654Z,24.8
2023-03-24T01:24:29.619Z,24.8
2023-03-24T01:26:29.596Z,24.9
2023-03-24T01:28:29.629Z,24.8
2023-03-24T01:30:29.622Z,24.7
2023-03-24T01:32:29.563Z,24.7
2023-03-24T01:34:29.648Z,24.7
2023-03-24T01:36:29.599Z,24.7
2023-03-24T01:38:29.579Z,24.8
2023-03-24T01:40:29.594Z,24.8
2023-03-24T01:42:29.559Z,24.7
2023-03-24T01:44:29.609Z,24.7
2023-03-24T01:46:29.575Z,24.7
2023-03-24T01:48:29.583Z,24.7
2023-03-24T01:50:29.612Z,24.7
2023-03-24T01:52:29.666Z,24.7
2023-03-24T01:54:29.593Z,24.7
2023-03-24T01:56:29.611Z,24.7
2023-03-24T01:58:29.714Z,24.5
2023-03-24T02:00:29.615Z,24.6
2023-03-24T02:02:29.711Z,24.6
2023-03-24T02:04:29.608Z,24.8
2023-03-24T02:06:29.550Z,24.8
2023-03-24T02:08:29.554Z,24.8
2023-03-24T02:10:29.641Z,24.7
2023-03-24T02:12:29.562Z,24.6
2023-03-24T02:14:29.542Z,24.5
2023-03-24T02:16:29.608Z,24.6
2023-03-24T02:18:29.540Z,24.5
2023-03-24T02:20:29.604Z,24.4
2023-03-24T02:22:29.578Z,24.4
2023-03-24T02:24:29.606Z,24.3
2023-03-24T02:26:29.596Z,24.4
2023-03-24T02:28:29.569Z,24.3
2023-03-24T02:30:29.564Z,24.3
2023-03-24T02:32:29.590Z,24.3
2023-03-24T02:34:29.547Z,24.2
2023-03-24T02:36:29.639Z,24.3
2023-03-24T02:38:29.538Z,24.3
2023-03-24T02:40:29.636Z,24.4
2023-03-24T02:42:29.565Z,24.2
2023-03-24T02:44:29.627Z,24.1
2023-03-24T02:46:29.531Z,24.3
2023-03-24T02:48:29.549Z,24.3
2023-03-24T02:50:29.550Z,24.3
2023-03-24T02:52:29.584Z,24.2
2023-03-24T02:54:29.589Z,24.3
2023-03-24T02:56:29.513Z,24.4
2023-03-24T02:58:29.514Z,24.2
2023-03-24T03:00:29.528Z,24.2
2023-03-24T03:02:29.653Z,24.1
2023-03-24T03:04:29.612Z,24.1
2023-03-24T03:06:29.592Z,24.2
2023-03-24T03:08:29.573Z,24.1
2023-03-24T03:10:29.584Z,24.1
2023-03-24T03:11:37.093Z,24.1
2023-03-24T03:14:29.492Z,23.9
2023-03-24T03:16:29.530Z,24
2023-03-24T03:18:29.543Z,23.9
2023-03-24T03:20:29.516Z,23.8
2023-03-24T03:22:29.566Z,23.8
2023-03-24T03:24:29.587Z,23.7
2023-03-24T03:26:29.588Z,23.8
2023-03-24T03:28:29.548Z,23.9
2023-03-24T03:30:29.480Z,23.8
2023-03-24T03:32:29.516Z,23.8
2023-03-24T03:34:29.579Z,23.7
2023-03-24T03:36:29.585Z,23.8
2023-03-24T03:38:29.524Z,23.7
2023-03-24T03:40:29.467Z,23.6
2023-03-24T03:42:29.598Z,23.6
2023-03-24T03:44:29.491Z,23.6
2023-03-24T03:46:29.534Z,23.6
2023-03-24T03:48:29.527Z,23.5
2023-03-24T03:50:29.494Z,23.5
2023-03-24T03:52:29.557Z,23.5
2023-03-24T03:54:29.441Z,23.5
2023-03-24T03:56:29.590Z,23.6
2023-03-24T03:58:29.530Z,23.5
2023-03-24T04:00:29.531Z,23.4
2023-03-24T04:01:47.465Z,23.4
2023-03-24T04:02:29.481Z,23.5
2023-03-24T04:04:29.463Z,23.4
2023-03-24T04:06:29.485Z,23.5
2023-03-24T04:08:29.452Z,23.4
2023-03-24T04:10:29.425Z,23.4
2023-03-24T04:12:29.490Z,23.4
2023-03-24T04:14:29.461Z,23.3
2023-03-24T04:16:29.530Z,23.4
2023-03-24T04:18:29.456Z,23.3
2023-03-24T04:20:10.414Z,23.3
2023-03-24T04:20:30.904Z,23.3
2023-03-24T04:22:29.487Z,23.2
2023-03-24T04:24:29.522Z,23.2
2023-03-24T04:26:29.508Z,23.2
2023-03-24T04:28:29.413Z,23.2
2023-03-24T04:30:29.445Z,23.2
2023-03-24T04:32:29.508Z,23.2
2023-03-24T04:34:40.158Z,23.1
2023-03-24T04:36:29.405Z,23.2
2023-03-24T04:38:51.800Z,23.2
2023-03-24T04:40:29.456Z,23.1
2023-03-24T04:42:29.519Z,23
2023-03-24T04:44:29.465Z,23
2023-03-24T04:46:29.471Z,23
2023-03-24T04:48:29.444Z,23.1
2023-03-24T04:50:29.464Z,22.9
2023-03-24T04:53:15.045Z,23
2023-03-24T04:54:29.438Z,22.8
2023-03-24T04:56:29.411Z,22.8
2023-03-24T04:58:29.419Z,22.7
2023-03-24T05:00:29.437Z,22.7
2023-03-24T05:02:29.416Z,22.8
2023-03-24T05:04:29.466Z,22.7
2023-03-24T05:06:29.420Z,22.8
2023-03-24T05:08:10.977Z,22.8
2023-03-24T05:08:29.385Z,22.7
2023-03-24T05:11:12.069Z,22.7
2023-03-24T05:12:29.465Z,22.6
2023-03-24T05:14:29.352Z,22.6
2023-03-24T05:15:59.134Z,22.6
2023-03-24T05:18:29.440Z,22.6
2023-03-24T05:20:29.402Z,22.5
2023-03-24T05:22:29.386Z,22.5
2023-03-24T05:24:29.490Z,22.5
2023-03-24T05:26:30.408Z,22.5
2023-03-24T05:28:29.425Z,22.4
2023-03-24T05:30:29.344Z,22.4
2023-03-24T05:31:38.204Z,22.4
2023-03-24T05:34:29.365Z,22.3
2023-03-24T05:36:29.390Z,22.4
2023-03-24T05:38:29.365Z,22.4
2023-03-24T05:40:29.374Z,22.3
2023-03-24T05:42:27.691Z,22.3
2023-03-24T05:43:41.839Z,22.3
2023-03-24T05:44:29.325Z,22.3
2023-03-24T05:46:29.439Z,22.4
2023-03-24T05:48:29.319Z,22.4
2023-03-24T05:50:29.359Z,22.3
2023-03-24T05:52:29.391Z,22.4
2023-03-24T05:54:29.897Z,22.3
2023-03-24T05:56:29.380Z,22.3
2023-03-24T05:58:29.360Z,22.4
2023-03-24T06:00:29.364Z,22.3
2023-03-24T06:02:29.464Z,22.3
2023-03-24T06:04:39.025Z,22.2
2023-03-24T06:06:29.320Z,22.3
2023-03-24T06:08:29.377Z,22.4
2023-03-24T06:10:29.345Z,22.4
2023-03-24T06:12:29.345Z,22.3
2023-03-24T06:14:29.334Z,22.3
2023-03-24T06:16:29.322Z,22.2
2023-03-24T06:18:29.390Z,22.3
2023-03-24T06:20:29.340Z,22.4
2023-03-24T06:22:29.302Z,22.3
2023-03-24T06:24:29.312Z,22.3
2023-03-24T06:26:29.395Z,22.3
2023-03-24T06:28:29.261Z,22.4
2023-03-24T06:30:29.271Z,22.3
2023-03-24T06:32:29.314Z,22.3
2023-03-24T06:34:29.328Z,22.3
2023-03-24T06:36:29.316Z,22.2
2023-03-24T06:38:29.302Z,22.2
2023-03-24T06:40:29.310Z,22.3
2023-03-24T06:42:29.344Z,22.3
2023-03-24T06:42:29.381Z,22.1
2023-03-24T06:44:29.284Z,22.1
2023-03-24T06:46:29.288Z,22.1
2023-03-24T06:48:29.275Z,22.2
2023-03-24T06:50:29.264Z,22.2
2023-03-24T06:52:29.217Z,22.2
2023-03-24T06:54:29.232Z,22.3
2023-03-24T06:56:29.334Z,22.2
2023-03-24T06:58:29.319Z,22.2
2023-03-24T07:00:29.278Z,22.1
2023-03-24T07:02:29.355Z,22
2023-03-24T07:04:29.300Z,22.1
2023-03-24T07:07:05.524Z,22.1
2023-03-24T07:08:37.877Z,22.1
2023-03-24T07:10:29.241Z,22
2023-03-24T07:12:29.257Z,22.1
2023-03-24T07:14:29.265Z,21.9
2023-03-24T07:16:29.314Z,22
2023-03-24T07:18:29.284Z,21.9
2023-03-24T07:20:29.309Z,21.9
2023-03-24T07:22:29.280Z,21.8
2023-03-24T07:24:31.286Z,21.9
2023-03-24T07:26:29.269Z,21.8
2023-03-24T07:28:29.218Z,21.8
2023-03-24T07:30:39.631Z,21.8
2023-03-24T07:32:29.212Z,21.8
2023-03-24T07:34:29.269Z,21.7
2023-03-24T07:36:29.245Z,21.7
2023-03-24T07:38:29.254Z,21.8
2023-03-24T07:40:28.583Z,21.8
2023-03-24T07:40:29.164Z,21.8
2023-03-24T07:42:00.101Z,21.8
2023-03-24T07:43:12.695Z,21.7
2023-03-24T07:44:29.169Z,21.7
2023-03-24T07:46:29.217Z,21.6
2023-03-24T07:48:29.190Z,21.9
2023-03-24T07:49:46.142Z,21.9
2023-03-24T07:52:29.164Z,21.7
2023-03-24T07:54:29.158Z,21.7
2023-03-24T07:56:29.172Z,21.6
2023-03-24T07:58:29.162Z,21.7
2023-03-24T08:00:29.192Z,21.6
2023-03-24T08:02:29.400Z,21.8
2023-03-24T08:04:29.254Z,21.6
2023-03-24T08:07:02.279Z,21.6
2023-03-24T08:08:29.188Z,21.6
2023-03-24T08:10:29.151Z,21.5
2023-03-24T08:12:29.197Z,21.5
2023-03-24T08:14:29.141Z,21.5
2023-03-24T08:16:29.146Z,21.4
2023-03-24T08:18:29.167Z,21.4
2023-03-24T08:20:29.151Z,21.4
2023-03-24T08:22:29.174Z,21.5
2023-03-24T08:24:29.207Z,21.4
2023-03-24T08:26:08.895Z,21.4
2023-03-24T08:26:29.167Z,21.4
2023-03-24T08:27:21.641Z,21.4
2023-03-24T08:28:29.184Z,21.4
2023-03-24T08:30:29.217Z,21.4
2023-03-24T08:32:29.167Z,21.4
2023-03-24T08:34:29.224Z,21.4
2023-03-24T08:36:29.189Z,21.4
2023-03-24T08:38:29.207Z,21.4
2023-03-24T08:40:29.135Z,21.4
2023-03-24T08:41:53.339Z,21.4
2023-03-24T08:44:30.226Z,21.4
2023-03-24T08:46:29.230Z,21.4
2023-03-24T08:49:13.154Z,21.5
2023-03-24T08:50:29.125Z,21.5
2023-03-24T08:52:15.828Z,21.5
2023-03-24T08:52:29.089Z,21.5
2023-03-24T08:54:29.144Z,21.5
2023-03-24T08:56:29.159Z,21.4
2023-03-24T08:58:29.116Z,21.5
2023-03-24T09:00:29.247Z,21.5
2023-03-24T09:02:29.210Z,21.4
2023-03-24T09:04:29.143Z,21.4
2023-03-24T09:07:21.058Z,21.4
2023-03-24T09:08:29.186Z,21.5
2023-03-24T09:09:15.484Z,21.5
2023-03-24T09:10:31.420Z,21.5
2023-03-24T09:12:29.204Z,21.6
2023-03-24T09:13:21.233Z,21.6
2023-03-24T09:14:29.118Z,21.5
2023-03-24T09:16:38.089Z,21.6
2023-03-24T09:18:29.083Z,21.6
2023-03-24T09:20:29.106Z,21.5
2023-03-24T09:22:29.118Z,21.4
2023-03-24T09:24:05.374Z,21.4
2023-03-24T09:24:29.065Z,21.5
2023-03-24T09:26:29.171Z,21.4
2023-03-24T09:28:29.134Z,21.5
2023-03-24T09:30:30.622Z,21.4
2023-03-24T09:32:29.207Z,21.4
2023-03-24T09:34:29.065Z,21.5
2023-03-24T09:36:31.062Z,21.4
2023-03-24T09:38:29.062Z,21.5
2023-03-24T09:40:29.144Z,21.3
2023-03-24T09:42:29.121Z,21.4
2023-03-24T09:44:29.158Z,21.5
2023-03-24T09:46:29.119Z,21.4
2023-03-24T09:48:11.539Z,21.4
2023-03-24T09:50:29.066Z,21.5
2023-03-24T09:52:18.132Z,21.5
2023-03-24T09:52:29.132Z,21.3
2023-03-24T09:54:29.072Z,21.3
2023-03-24T09:56:29.106Z,21.3
2023-03-24T09:58:29.068Z,21.3
2023-03-24T10:00:29.138Z,21.4
2023-03-24T10:02:29.110Z,21.4
2023-03-24T10:04:29.201Z,21.4
2023-03-24T10:06:29.062Z,21.3
2023-03-24T10:08:30.645Z,21.4
2023-03-24T10:10:29.094Z,21.3
2023-03-24T10:12:29.043Z,21.3
2023-03-24T10:14:29.021Z,21.2
2023-03-24T10:16:29.061Z,21.1
2023-03-24T10:18:29.018Z,21.3
2023-03-24T10:20:29.083Z,21.1
2023-03-24T10:22:29.017Z,21.1
2023-03-24T10:24:29.089Z,21.2
2023-03-24T10:26:29.105Z,21.1
2023-03-24T10:27:33.391Z,21.1
2023-03-24T10:30:29.034Z,21.1
2023-03-24T10:32:29.049Z,21.1
2023-03-24T10:34:29.176Z,21.1
2023-03-24T10:36:29.117Z,21.1
2023-03-24T10:38:29.090Z,21.1
2023-03-24T10:40:33.315Z,21.1
2023-03-24T10:42:29.080Z,21
2023-03-24T10:44:29.004Z,21
2023-03-24T10:46:29.065Z,21
2023-03-24T10:48:28.983Z,21
2023-03-24T10:50:29.067Z,21
2023-03-24T10:52:29.063Z,21
2023-03-24T10:54:29.027Z,21
2023-03-24T10:56:29.005Z,20.9
2023-03-24T10:58:03.673Z,20.9
2023-03-24T10:58:29.053Z,21.1
2023-03-24T11:00:28.974Z,21.1
2023-03-24T11:02:29.105Z,21
2023-03-24T11:04:58.437Z,20.9
2023-03-24T11:06:29.013Z,20.9
2023-03-24T11:08:29.103Z,21
2023-03-24T11:10:28.938Z,20.9
2023-03-24T11:12:28.963Z,21
2023-03-24T11:14:28.958Z,21
2023-03-24T11:16:28.990Z,21.1
2023-03-24T11:18:50.677Z,21.1
2023-03-24T11:20:29.002Z,21
2023-03-24T11:22:28.988Z,21
2023-03-24T11:24:28.980Z,21
2023-03-24T11:26:28.970Z,21.1
2023-03-24T11:28:28.969Z,21.2
2023-03-24T11:30:28.989Z,21.1
2023-03-24T11:32:29.019Z,21
2023-03-24T11:34:28.962Z,21
2023-03-24T11:36:29.050Z,21.1
2023-03-24T11:38:28.958Z,21.2
2023-03-24T11:40:28.991Z,21.2
2023-03-24T11:42:28.967Z,21.3
2023-03-24T11:44:28.971Z,21.2
2023-03-24T11:46:29.033Z,21.3
2023-03-24T11:48:28.994Z,21.4
2023-03-24T11:50:28.957Z,21.3
2023-03-24T11:52:28.935Z,21.4
2023-03-24T11:54:30.587Z,21.2
2023-03-24T11:56:28.929Z,21.2
2023-03-24T11:58:28.935Z,21.4
2023-03-24T12:00:29.883Z,21.4
2023-03-24T12:02:29.030Z,21.5
2023-03-24T12:04:28.985Z,21.5
2023-03-24T12:06:28.984Z,21.5
2023-03-24T12:08:28.985Z,21.6
2023-03-24T12:09:52.483Z,21.6
2023-03-24T12:10:28.952Z,21.7
2023-03-24T12:12:28.984Z,21.7
2023-03-24T12:14:28.965Z,21.7
2023-03-24T12:16:28.927Z,21.8
2023-03-24T12:18:28.962Z,21.9
2023-03-24T12:20:28.890Z,22.1
2023-03-24T12:22:28.895Z,22.1
2023-03-24T12:24:28.937Z,22.1
2023-03-24T12:26:28.946Z,22.1
2023-03-24T12:28:28.904Z,22.4
2023-03-24T12:30:28.923Z,22.5
2023-03-24T12:32:28.925Z,22.5
2023-03-24T12:34:28.959Z,22.7
2023-03-24T12:35:43.687Z,22.7
2023-03-24T12:36:28.989Z,22.5
2023-03-24T12:38:28.979Z,22.7
2023-03-24T12:40:28.906Z,22.7
2023-03-24T12:42:28.942Z,22.7
2023-03-24T12:44:28.891Z,22.8
2023-03-24T12:46:37.157Z,23
2023-03-24T12:48:43.285Z,23.1
2023-03-24T12:50:28.865Z,23.1
2023-03-24T12:51:45.374Z,23.1
2023-03-24T12:52:28.887Z,23.2
2023-03-24T12:54:28.915Z,23.2
2023-03-24T12:56:28.861Z,23.2
2023-03-24T12:58:50.323Z,23.3
2023-03-24T13:00:28.826Z,23.3
2023-03-24T13:02:29.048Z,23.7
2023-03-24T13:04:28.957Z,23.7
2023-03-24T13:06:28.875Z,23.7
2023-03-24T13:08:28.880Z,24
2023-03-24T13:10:28.901Z,24.2
2023-03-24T13:12:28.922Z,24.1
2023-03-24T13:14:28.865Z,24.2
2023-03-24T13:16:28.890Z,24.2
2023-03-24T13:18:28.844Z,24.4
2023-03-24T13:20:28.908Z,24.5
2023-03-24T13:22:28.867Z,24.6
2023-03-24T13:24:28.809Z,24.5
2023-03-24T13:26:28.944Z,24.8
2023-03-24T13:28:28.835Z,24.9
2023-03-24T13:30:28.818Z,24.7
2023-03-24T13:32:28.926Z,24.8
2023-03-24T13:34:28.878Z,24.8
2023-03-24T13:36:28.943Z,25
2023-03-24T13:38:28.876Z,25.2
2023-03-24T13:40:28.815Z,25.1
2023-03-24T13:42:28.918Z,25.3
2023-03-24T13:44:28.868Z,25.4
2023-03-24T13:46:28.835Z,25.6
2023-03-24T13:48:28.829Z,25.5
2023-03-24T13:50:28.864Z,25.3
2023-03-24T13:52:28.955Z,25.5
2023-03-24T13:54:28.769Z,25.4
2023-03-24T13:56:28.897Z,25.3
2023-03-24T13:58:28.817Z,25.4
2023-03-24T14:00:28.812Z,25.4
2023-03-24T14:02:29.027Z,25.5
2023-03-24T14:04:28.845Z,25.7
2023-03-24T14:06:28.813Z,25.8
2023-03-24T14:08:28.758Z,25.9
2023-03-24T14:10:28.810Z,26
2023-03-24T14:12:28.793Z,26.2
2023-03-24T14:14:28.824Z,26
2023-03-24T14:16:28.805Z,26
2023-03-24T14:18:28.851Z,26.3
2023-03-24T14:20:28.916Z,26.3
2023-03-24T14:22:28.797Z,26.3
2023-03-24T14:24:28.839Z,26.6
2023-03-24T14:26:28.773Z,26.5
2023-03-24T14:28:28.845Z,26.5
2023-03-24T14:30:28.730Z,26.5
2023-03-24T14:32:28.811Z,26.5
2023-03-24T14:34:28.792Z,26.6
2023-03-24T14:36:28.852Z,26.8
2023-03-24T14:38:28.765Z,26.9
2023-03-24T14:40:29.625Z,26.8
2023-03-24T14:41:58.699Z,26.8
2023-03-24T14:43:44.448Z,26.8
2023-03-24T14:46:28.834Z,27
2023-03-24T14:48:28.737Z,27.1
2023-03-24T14:50:28.740Z,27
2023-03-24T14:52:28.708Z,27.1
2023-03-24T14:54:28.697Z,27.1
2023-03-24T14:56:28.785Z,27.3
2023-03-24T14:58:28.774Z,27.4
2023-03-24T15:00:28.796Z,27.2
2023-03-24T15:01:47.531Z,27.2
2023-03-24T15:04:28.738Z,27.4
2023-03-24T15:06:28.737Z,27.4
2023-03-24T15:08:28.769Z,27.6
2023-03-24T15:10:28.763Z,27.7
2023-03-24T15:12:28.770Z,27.9
2023-03-24T15:14:28.725Z,27.9
2023-03-24T15:16:28.820Z,27.9
2023-03-24T15:18:28.774Z,28.1
2023-03-24T15:20:28.710Z,28
2023-03-24T15:22:28.707Z,28
2023-03-24T15:23:44.722Z,28
2023-03-24T15:24:28.782Z,28.1
2023-03-24T15:26:28.812Z,28.1
2023-03-24T15:28:28.765Z,28.4
2023-03-24T15:30:28.749Z,28.4
2023-03-24T15:32:28.844Z,28.4
2023-03-24T15:34:28.786Z,28.4
2023-03-24T15:36:28.710Z,28.4
2023-03-24T15:38:28.733Z,28.6
2023-03-24T15:40:28.759Z,28.6
2023-03-24T15:42:28.694Z,28.5
2023-03-24T15:44:28.728Z,28.5
2023-03-24T15:46:28.789Z,28.4
2023-03-24T15:48:09.637Z,28.4
2023-03-24T15:51:17.188Z,28.6
2023-03-24T15:52:28.700Z,28.8
2023-03-24T15:54:28.659Z,28.7
2023-03-24T15:56:28.729Z,28.8
2023-03-24T15:58:28.736Z,28.9
2023-03-24T16:00:28.729Z,28.9
2023-03-24T16:02:28.719Z,29
2023-03-24T16:04:28.717Z,29.2
2023-03-24T16:06:28.705Z,29.3
2023-03-24T16:08:28.689Z,29.6
2023-03-24T16:10:28.701Z,29.6
2023-03-24T16:12:28.632Z,29.7
2023-03-24T16:14:47.707Z,30
2023-03-24T16:16:29.706Z,30.2
2023-03-24T16:18:28.627Z,30.2
2023-03-24T16:20:28.628Z,30.4
2023-03-24T16:22:28.660Z,30.5
2023-03-24T16:24:28.676Z,30.4
2023-03-24T16:26:28.630Z,30.4
2023-03-24T16:28:28.627Z,30.5
2023-03-24T16:30:53.590Z,30.7
2023-03-24T16:32:28.660Z,30.8
2023-03-24T16:34:28.623Z,30.7
2023-03-24T16:36:28.689Z,30.8
2023-03-24T16:37:12.102Z,30.8
2023-03-24T16:38:28.772Z,31
2023-03-24T16:40:28.632Z,31
2023-03-24T16:42:28.610Z,31.2
2023-03-24T16:44:28.616Z,31.2
2023-03-24T16:46:45.322Z,31.4
2023-03-24T16:48:28.586Z,31.4
2023-03-24T16:50:28.713Z,31.4
2023-03-24T16:52:28.638Z,31.3
2023-03-24T16:54:28.626Z,31.4
2023-03-24T16:56:28.706Z,31.3
2023-03-24T16:58:28.638Z,31.5
2023-03-24T17:00:28.589Z,31.5
2023-03-24T17:02:28.637Z,31.4
2023-03-24T17:04:28.590Z,31.3
2023-03-24T17:06:28.579Z,31.5
2023-03-24T17:08:28.583Z,31.3
2023-03-24T17:10:08.958Z,31.3
2023-03-24T17:10:28.611Z,31.6
2023-03-24T17:12:28.609Z,31.5
2023-03-24T17:14:28.594Z,31.4
2023-03-24T17:16:28.638Z,31.7
2023-03-24T17:18:28.595Z,32
2023-03-24T17:20:28.592Z,32
2023-03-24T17:22:28.568Z,31.9
2023-03-24T17:24:28.610Z,32.2
2023-03-24T17:26:30.322Z,32.4
2023-03-24T17:28:45.534Z,32.3
2023-03-24T17:30:28.554Z,32.4
2023-03-24T17:32:28.615Z,32.2
2023-03-24T17:34:28.569Z,32.1
2023-03-24T17:36:28.562Z,32.1
2023-03-24T17:38:28.533Z,31.6
2023-03-24T17:40:28.540Z,31.4
2023-03-24T17:42:28.601Z,31.2
2023-03-24T17:44:35.169Z,31.1
2023-03-24T17:46:28.586Z,30.8
2023-03-24T17:47:56.246Z,30.8
2023-03-24T17:50:28.573Z,30.6
2023-03-24T17:52:28.583Z,30.3
2023-03-24T17:54:28.566Z,30.2
2023-03-24T17:56:28.591Z,30
2023-03-24T17:58:28.563Z,29.8
2023-03-24T18:00:28.544Z,29.7
2023-03-24T18:02:28.703Z,29.2
2023-03-24T18:04:01.979Z,29.2
2023-03-24T18:06:28.573Z,28.8
2023-03-24T18:08:28.602Z,28.3
2023-03-24T18:10:28.629Z,28
2023-03-24T18:12:28.488Z,27.5
2023-03-24T18:14:41.383Z,27.3
2023-03-24T18:16:28.572Z,26.8
2023-03-24T18:18:28.548Z,26.6
2023-03-24T18:20:28.585Z,26.5
2023-03-24T18:22:28.535Z,26.3
2023-03-24T18:24:08.950Z,26.3
2023-03-24T18:26:28.570Z,26.1
2023-03-24T18:28:40.152Z,26
2023-03-24T18:30:28.495Z,26
2023-03-24T18:32:28.578Z,25.9
2023-03-24T18:34:28.500Z,25.9
2023-03-24T18:36:28.497Z,25.6
2023-03-24T18:38:28.507Z,25.6
2023-03-24T18:40:32.146Z,25.5
2023-03-24T18:42:28.533Z,25.4
2023-03-24T18:44:28.557Z,25.3
2023-03-24T18:45:53.543Z,25.3
2023-03-24T18:48:28.493Z,25
2023-03-24T18:50:28.448Z,25.1
2023-03-24T18:52:28.497Z,25
2023-03-24T18:54:28.444Z,24.9
2023-03-24T18:56:28.545Z,24.9
2023-03-24T18:58:28.484Z,24.7
2023-03-24T19:00:59.712Z,24.6
2023-03-24T19:02:28.567Z,24.7
2023-03-24T19:04:28.450Z,24.7
2023-03-24T19:06:28.467Z,24.7
2023-03-24T19:08:28.535Z,24.6
2023-03-24T19:10:28.558Z,24.6
2023-03-24T19:12:28.492Z,24.7
2023-03-24T19:14:28.528Z,24.5
2023-03-24T19:16:28.508Z,24.5
2023-03-24T19:18:28.467Z,24.5
2023-03-24T19:20:28.478Z,24.5
2023-03-24T19:22:28.450Z,24.5
2023-03-24T19:24:28.467Z,24.4
2023-03-24T19:26:28.406Z,24.4
2023-03-24T19:28:28.517Z,24.4
2023-03-24T19:30:54.351Z,24.5
2023-03-24T19:32:28.505Z,24.6
2023-03-24T19:34:28.489Z,24.5
2023-03-24T19:36:28.408Z,24.6
2023-03-24T19:38:28.404Z,24.5
2023-03-24T19:40:28.434Z,24.6
2023-03-24T19:42:28.427Z,24.5
2023-03-24T19:44:28.455Z,24.6
2023-03-24T19:46:28.496Z,24.6
2023-03-24T19:48:25.286Z,24.6
2023-03-24T19:50:28.475Z,24.6
2023-03-24T19:52:28.404Z,24.4
2023-03-24T19:54:28.425Z,24.4
2023-03-24T19:56:28.424Z,24.5
2023-03-24T19:58:28.402Z,24.4
2023-03-24T20:00:28.436Z,24.5
2023-03-24T20:02:28.505Z,24.5
2023-03-24T20:04:28.442Z,24.6
2023-03-24T20:06:28.412Z,24.5
2023-03-24T20:07:46.773Z,24.5
2023-03-24T20:08:28.379Z,24.5
2023-03-24T20:10:28.422Z,24.6
2023-03-24T20:12:28.431Z,24.6
2023-03-24T20:14:28.369Z,24.7
2023-03-24T20:16:28.444Z,24.6
2023-03-24T20:17:25.399Z,24.6
2023-03-24T20:18:28.405Z,24.6
2023-03-24T20:20:28.360Z,24.6
2023-03-24T20:22:39.118Z,24.7
2023-03-24T20:24:28.381Z,24.7
2023-03-24T20:26:28.385Z,24.5
2023-03-24T20:28:28.369Z,24.3
2023-03-24T20:30:28.353Z,24.4
2023-03-24T20:32:28.374Z,24.5
2023-03-24T20:33:48.672Z,24.5
2023-03-24T20:36:28.356Z,24.5
2023-03-24T20:38:28.403Z,24.3
2023-03-24T20:40:28.352Z,24.5
2023-03-24T20:42:28.353Z,24.4
2023-03-24T20:44:28.344Z,24.4
2023-03-24T20:46:28.339Z,24.3
2023-03-24T20:48:28.362Z,24.3
2023-03-24T20:50:28.362Z,24.4
2023-03-24T20:52:28.335Z,24.3
2023-03-24T20:54:28.347Z,24.2
2023-03-24T20:56:28.355Z,24.1
2023-03-24T20:58:28.324Z,24
2023-03-24T21:00:29.696Z,24.2
2023-03-24T21:02:28.468Z,24
2023-03-24T21:04:28.333Z,24
2023-03-24T21:06:28.314Z,23.9
2023-03-24T21:08:28.333Z,23.8
2023-03-24T21:10:28.312Z,23.9
2023-03-24T21:12:28.333Z,23.9
2023-03-24T21:13:37.146Z,23.9
2023-03-24T21:16:28.352Z,23.6
2023-03-24T21:18:28.286Z,23.5
2023-03-24T21:20:28.416Z,23.7
2023-03-24T21:22:52.125Z,23.4
2023-03-24T21:24:28.370Z,23.4
2023-03-24T21:26:30.242Z,23.3
2023-03-24T21:28:28.295Z,23.2
2023-03-24T21:30:28.333Z,23.2
2023-03-24T21:32:28.352Z,23.1
2023-03-24T21:34:28.301Z,23
2023-03-24T21:36:05.361Z,23
2023-03-24T21:38:28.318Z,22.9
2023-03-24T21:40:28.306Z,23
2023-03-24T21:42:28.281Z,22.9
2023-03-24T21:43:53.982Z,22.9
2023-03-24T21:44:28.287Z,22.8
2023-03-24T21:46:28.266Z,22.8
2023-03-24T21:48:28.357Z,22.7
2023-03-24T21:50:28.283Z,22.7
2023-03-24T21:52:28.301Z,22.6
2023-03-24T21:54:28.276Z,22.5
2023-03-24T21:56:28.281Z,22.4
2023-03-24T21:58:28.287Z,22.3
2023-03-24T22:00:28.288Z,22.4
2023-03-24T22:02:28.272Z,22.3
2023-03-24T22:04:28.251Z,22.3
2023-03-24T22:06:28.263Z,22.2
2023-03-24T22:08:28.258Z,22.2
2023-03-24T22:10:28.259Z,22.4
2023-03-24T22:12:28.231Z,22.5
2023-03-24T22:14:28.261Z,22.3
2023-03-24T22:16:28.255Z,22.2
2023-03-24T22:18:28.255Z,22.2
2023-03-24T22:20:28.382Z,22.2
2023-03-24T22:22:28.294Z,22.1
2023-03-24T22:24:28.230Z,22
2023-03-24T22:26:28.255Z,21.9
2023-03-24T22:28:28.227Z,21.8
2023-03-24T22:30:28.207Z,21.8
2023-03-24T22:32:28.263Z,21.7
2023-03-24T22:34:28.237Z,21.6
2023-03-24T22:36:28.382Z,21.4
2023-03-24T22:38:28.264Z,21.3
2023-03-24T22:40:28.244Z,21.3
2023-03-24T22:42:28.224Z,21.2
2023-03-24T22:44:28.566Z,21.1
2023-03-24T22:46:28.207Z,21
2023-03-24T22:48:28.227Z,20.9
2023-03-24T22:50:28.302Z,20.9
2023-03-24T22:52:34.123Z,20.7
2023-03-24T22:54:28.182Z,20.5
2023-03-24T22:56:28.310Z,20.4
2023-03-24T22:58:28.188Z,20.3
2023-03-24T23:00:29.849Z,20.2
2023-03-24T23:02:28.251Z,20.1
2023-03-24T23:04:28.258Z,19.9
2023-03-24T23:06:28.195Z,19.8
2023-03-24T23:08:28.210Z,19.7
2023-03-24T23:10:28.229Z,19.6
2023-03-24T23:12:28.236Z,19.5
2023-03-24T23:14:28.845Z,19.3
2023-03-24T23:16:28.399Z,19.2
2023-03-24T23:18:28.165Z,19
2023-03-24T23:20:28.344Z,19
2023-03-24T23:22:28.156Z,18.9
2023-03-24T23:24:28.215Z,18.8
2023-03-24T23:26:28.265Z,18.6
2023-03-24T23:28:28.254Z,18.6
2023-03-24T23:30:28.183Z,18.6
2023-03-24T23:32:34.949Z,18.3
2023-03-24T23:34:28.195Z,18.2
2023-03-24T23:36:28.264Z,18.1
2023-03-24T23:38:28.189Z,17.9
2023-03-24T23:40:28.151Z,17.9
2023-03-24T23:42:28.153Z,17.8
2023-03-24T23:44:28.274Z,17.8
2023-03-24T23:46:28.247Z,17.8
2023-03-24T23:48:28.189Z,17.6
2023-03-24T23:50:28.169Z,17.6
2023-03-24T23:52:28.169Z,17.5
2023-03-24T23:54:28.152Z,17.4
2023-03-24T23:56:28.175Z,17.3
2023-03-24T23:58:28.143Z,17.2
